Time;durP1;ratioP1;P1;durP2;ratioP2;P2;SDS_P1;SDS_P2;PMS_P1;PMS_P2;Temp;Humidity;BMP_temperature;BMP_pressure;BME280_temperature;BME280_humidity;BME280_pressure;Samples;Min_cycle;Max_cycle;Signal;HPM_P1;HPM_P2
2022/06/18 00:00:52;;;;;;;4.75;1.60;;;;;;;17.84;76.82;100975.47;4454100;32;20100;-77
2022/06/18 00:03:19;;;;;;;1.80;1.20;;;;;;;17.80;77.21;100983.63;4454133;32;20504;-77
2022/06/18 00:05:49;;;;;;;1.80;1.40;;;;;;;17.75;76.92;100982.87;4454072;32;20516;-77
2022/06/18 00:08:23;;;;;;;1.70;1.37;;;;;;;17.71;76.29;100987.44;4454155;32;20093;-77
2022/06/18 00:13:39;;;;;;;3.10;2.12;;;;;;;17.25;79.93;100983.53;4454050;32;20566;-77
2022/06/18 00:13:44;;;;;;;2.00;1.48;;;;;;;17.29;81.98;100986.97;4453898;32;20110;-77
2022/06/18 00:16:15;;;;;;;1.60;1.50;;;;;;;17.74;82.51;100995.34;4453986;32;20464;-77
2022/06/18 00:18:42;;;;;;;2.87;1.45;;;;;;;17.32;82.06;100986.88;4453943;32;20096;-77
2022/06/18 00:21:16;;;;;;;1.70;1.60;;;;;;;17.02;84.41;100993.97;4453990;32;20499;-77
2022/06/18 00:23:44;;;;;;;4.97;1.60;;;;;;;17.84;81.06;100991.47;4453019;32;20440;-77
2022/06/18 00:26:12;;;;;;;1.60;1.52;;;;;;;17.61;78.19;100986.84;4453868;32;20441;-77
2022/06/18 00:28:39;;;;;;;3.15;1.58;;;;;;;17.55;80.62;100991.50;4453751;32;20124;-77
2022/06/18 00:31:06;;;;;;;2.03;1.50;;;;;;;17.44;80.75;100987.38;4453768;32;20508;-77
2022/06/18 00:33:39;;;;;;;4.32;1.48;;;;;;;17.40;79.88;100996.37;4453788;32;20085;-77
2022/06/18 00:36:16;;;;;;;2.42;1.40;;;;;;;17.19;81.77;100997.03;4453852;32;20420;-77
2022/06/18 00:38:47;;;;;;;1.87;1.30;;;;;;;17.03;81.92;100991.28;4453702;32;20081;-77
2022/06/18 00:41:21;;;;;;;4.47;1.20;;;;;;;17.02;81.73;100986.84;4453757;32;20092;-77
2022/06/18 00:43:55;;;;;;;2.40;1.20;;;;;;;16.96;81.81;100987.00;4453746;32;20482;-77
2022/06/18 00:46:40;;;;;;;2.35;1.35;;;;;;;17.64;78.85;100984.09;4453669;32;20597;-77
2022/06/18 00:49:24;;;;;;;1.90;1.25;;;;;;;17.34;79.20;100980.56;4453339;32;20599;-77
2022/06/18 00:52:02;;;;;;;4.50;1.77;;;;;;;17.37;78.85;100979.59;4453546;32;20441;-77
2022/06/18 00:54:40;;;;;;;1.37;1.35;;;;;;;17.29;80.50;100981.66;4453549;32;20084;-77
2022/06/18 00:57:28;;;;;;;5.40;1.92;;;;;;;17.13;82.52;100987.41;4453754;32;20489;-77
2022/06/18 01:00:33;;;;;;;1.62;1.23;;;;;;;17.09;84.13;100985.75;4440921;32;20100;-77
2022/06/18 01:03:01;;;;;;;1.80;1.52;;;;;;;17.13;84.26;100990.06;4453573;32;20138;-77
2022/06/18 01:05:39;;;;;;;1.58;1.35;;;;;;;17.12;84.95;100992.78;4453516;32;20433;-76
2022/06/18 01:08:16;;;;;;;3.62;1.60;;;;;;;17.08;86.20;100985.81;4453840;32;20084;-77
2022/06/18 01:10:50;;;;;;;5.97;1.45;;;;;;;16.91;87.04;100989.81;4453559;32;20093;-77
2022/06/18 01:13:23;;;;;;;1.52;1.50;;;;;;;16.84;87.11;100985.59;4438889;32;20510;-77
2022/06/18 01:15:54;;;;;;;4.50;1.65;;;;;;;16.80;85.99;100983.06;4439180;32;20519;-77
2022/06/18 01:18:22;;;;;;;7.57;1.42;;;;;;;16.85;86.42;100995.31;4453563;32;20080;-77
2022/06/18 01:20:58;;;;;;;5.47;1.50;;;;;;;16.88;85.03;100986.37;4453136;32;20588;-77
2022/06/18 01:24:12;;;;;;;3.25;1.40;;;;;;;17.03;85.21;100987.72;4438723;32;20116;-77
2022/06/18 01:26:40;;;;;;;6.07;1.60;;;;;;;16.98;84.71;100987.84;4453449;32;20119;-77
2022/06/18 01:29:09;;;;;;;1.75;1.27;;;;;;;17.03;84.64;100988.63;4453296;32;20084;-77
2022/06/18 01:31:36;;;;;;;3.05;1.33;;;;;;;17.06;84.60;100984.97;4453302;32;20822;-77
2022/06/18 01:34:06;;;;;;;1.52;1.40;;;;;;;17.10;85.51;100987.53;4439469;32;20129;-77
2022/06/18 01:36:36;;;;;;;2.65;1.30;;;;;;;17.17;84.45;100975.78;4455467;32;20088;-77
2022/06/18 01:39:06;;;;;;;1.58;1.48;;;;;;;17.19;84.79;100970.38;4455390;32;20095;-77
2022/06/18 01:41:50;;;;;;;3.47;1.20;;;;;;;17.35;83.64;100978.78;4455224;32;20449;-77
2022/06/18 01:44:28;;;;;;;2.92;1.40;;;;;;;17.46;81.68;100967.81;4455644;32;20177;-77
2022/06/18 01:47:05;;;;;;;1.40;1.30;;;;;;;17.63;79.71;100974.38;4455557;32;20601;-77
2022/06/18 01:49:59;;;;;;;6.65;1.50;;;;;;;17.83;77.51;100970.19;4455256;32;20092;-77
2022/06/18 01:52:41;;;;;;;1.25;1.25;;;;;;;18.01;77.76;100976.72;4447466;32;20459;-77
2022/06/18 01:55:16;;;;;;;4.12;1.70;;;;;;;18.12;78.68;100975.44;4455529;32;20104;-77
2022/06/18 01:57:49;;;;;;;2.60;1.60;;;;;;;18.22;79.73;100980.47;4455297;32;20467;-77
2022/06/18 02:00:21;;;;;;;1.20;1.20;;;;;;;18.07;80.19;100974.72;4455342;32;20097;-77
2022/06/18 02:02:50;;;;;;;3.92;1.70;;;;;;;18.04;78.26;100973.97;4455395;32;20092;-77
2022/06/18 02:05:20;;;;;;;3.72;1.27;;;;;;;18.14;77.22;100968.25;4455233;32;20187;-77
2022/06/18 02:07:49;;;;;;;1.30;1.25;;;;;;;18.05;78.04;100963.22;4455175;32;20442;-77
2022/06/18 02:10:22;;;;;;;4.55;1.60;;;;;;;18.01;79.68;100966.91;4455088;32;20084;-77
2022/06/18 02:12:50;;;;;;;2.60;1.40;;;;;;;17.85;81.02;100965.72;4455333;32;20479;-77
2022/06/18 02:15:26;;;;;;;2.00;1.37;;;;;;;17.81;82.04;100969.37;4455238;32;20131;-77
2022/06/18 02:17:58;;;;;;;3.08;1.58;;;;;;;17.67;83.13;100975.13;4441362;32;20778;-77
2022/06/18 02:20:28;;;;;;;6.68;1.58;;;;;;;17.63;84.36;100973.47;4455232;32;20149;-77
2022/06/18 02:22:57;;;;;;;1.83;1.37;;;;;;;17.37;85.43;100974.28;4455046;32;20129;-77
2022/06/18 02:25:27;;;;;;;2.25;1.40;;;;;;;17.32;85.08;100962.91;4455011;32;20748;-77
2022/06/18 02:28:01;;;;;;;2.20;1.58;;;;;;;17.19;86.60;100962.41;4455143;32;20085;-77
2022/06/18 02:30:36;;;;;;;1.62;1.42;;;;;;;17.09;86.49;100961.78;4455034;32;20157;-77
2022/06/18 02:33:29;;;;;;;2.28;1.27;;;;;;;16.98;84.99;100965.69;4454851;32;20150;-77
2022/06/18 02:36:06;;;;;;;1.65;1.40;;;;;;;16.96;84.41;100965.72;4454776;32;20122;-77
2022/06/18 02:38:33;;;;;;;3.12;2.03;;;;;;;17.01;82.92;100961.16;4428720;32;20127;-77
2022/06/18 02:41:01;;;;;;;1.83;1.23;;;;;;;17.12;82.64;100961.69;4454675;32;20084;-77
2022/06/18 02:43:28;;;;;;;3.00;1.67;;;;;;;17.08;82.81;100960.06;4440356;32;20112;-77
2022/06/18 02:45:56;;;;;;;1.40;1.30;;;;;;;16.98;83.83;100971.03;4439810;32;20145;-77
2022/06/18 02:48:31;;;;;;;1.48;1.37;;;;;;;17.05;82.87;100968.13;4454828;32;20084;-77
2022/06/18 02:51:00;;;;;;;1.62;1.52;;;;;;;16.93;85.18;100968.50;4454707;32;20420;-77
2022/06/18 02:53:29;;;;;;;7.75;1.55;;;;;;;16.87;85.95;100971.31;4454944;32;20413;-77
2022/06/18 02:56:00;;;;;;;2.30;1.50;;;;;;;16.89;85.92;100969.47;4440338;32;20120;-77
2022/06/18 02:58:35;;;;;;;3.33;1.75;;;;;;;16.74;87.46;100973.44;4440888;32;20153;-77
2022/06/18 03:01:06;;;;;;;3.25;1.92;;;;;;;16.67;89.41;100975.38;4440335;32;20101;-77
2022/06/18 03:03:38;;;;;;;3.70;1.50;;;;;;;16.53;90.47;100974.88;4455077;32;20409;-77
2022/06/18 03:06:07;;;;;;;4.45;1.90;;;;;;;16.45;91.07;100980.41;4454738;32;20104;-77
2022/06/18 03:08:36;;;;;;;1.55;1.45;;;;;;;16.42;93.21;100976.97;4440490;32;20404;-77
2022/06/18 03:13:56;;;;;;;3.10;1.62;;;;;;;16.43;92.21;100976.03;4454839;32;20105;-77
2022/06/18 03:16:24;;;;;;;4.97;2.12;;;;;;;16.14;93.95;100982.13;4454825;32;20104;-77
2022/06/18 03:18:54;;;;;;;7.97;2.00;;;;;;;16.57;94.00;100970.34;4454543;32;20114;-77
2022/06/18 03:21:27;;;;;;;5.28;2.22;;;;;;;16.51;95.30;100982.03;4454584;32;20077;-77
2022/06/18 03:23:54;;;;;;;2.50;2.30;;;;;;;16.60;96.90;100971.12;4454488;32;20154;-77
2022/06/18 03:26:22;;;;;;;5.47;2.30;;;;;;;16.50;99.49;100980.28;4440321;32;20211;-77
2022/06/18 03:28:49;;;;;;;2.67;1.90;;;;;;;16.54;100.00;100978.41;4454613;32;20144;-77
2022/06/18 03:31:16;;;;;;;3.55;2.20;;;;;;;16.62;99.45;100981.75;4440032;32;20185;-77
2022/06/18 03:33:46;;;;;;;3.20;2.15;;;;;;;16.43;99.26;100989.34;4454282;32;20128;-77
2022/06/18 03:36:17;;;;;;;3.83;2.30;;;;;;;16.34;100.00;100992.25;4454517;32;20108;-77
2022/06/18 03:38:46;;;;;;;2.70;2.50;;;;;;;16.34;100.00;100990.47;4454295;32;20085;-76
2022/06/18 03:41:16;;;;;;;6.15;2.20;;;;;;;16.39;100.00;100993.88;4454407;32;20088;-77
2022/06/18 03:43:43;;;;;;;4.93;2.20;;;;;;;16.41;100.00;100991.19;4439919;32;20139;-77
2022/06/18 03:46:14;;;;;;;3.92;2.20;;;;;;;16.48;100.00;100995.41;4454420;32;20466;-77
2022/06/18 03:48:57;;;;;;;4.75;2.42;;;;;;;16.44;100.00;100997.28;4439947;32;20088;-77
2022/06/18 03:51:25;;;;;;;2.62;1.92;;;;;;;16.30;100.00;100994.13;4440280;32;20089;-77
2022/06/18 03:53:54;;;;;;;2.33;2.12;;;;;;;16.40;100.00;100995.63;4454443;32;20108;-77
2022/06/18 03:56:30;;;;;;;8.75;2.40;;;;;;;16.49;100.00;100999.81;4440048;32;20145;-77
2022/06/18 03:58:59;;;;;;;2.60;2.15;;;;;;;16.65;100.00;100993.19;4453246;32;20088;-77
2022/06/18 04:01:30;;;;;;;2.72;2.00;;;;;;;16.84;100.00;100995.38;4454210;32;20126;-77
2022/06/18 04:03:59;;;;;;;2.53;2.03;;;;;;;17.09;99.25;100996.41;4454502;32;20092;-77
2022/06/18 04:06:29;;;;;;;3.35;2.15;;;;;;;17.24;97.57;100989.75;4454283;32;20151;-77
2022/06/18 04:08:57;;;;;;;4.97;2.05;;;;;;;17.49;95.57;100995.25;4454406;32;20085;-77
2022/06/18 04:11:25;;;;;;;3.75;2.10;;;;;;;17.70;94.49;100996.34;4454200;32;20096;-77
2022/06/18 04:13:54;;;;;;;6.00;2.47;;;;;;;17.74;93.89;100990.00;4439665;32;20170;-77
2022/06/18 04:16:23;;;;;;;4.12;2.30;;;;;;;18.05;92.11;101000.56;4454437;32;20247;-77
2022/06/18 04:18:52;;;;;;;2.72;1.92;;;;;;;18.33;90.72;100995.16;4454109;32;20176;-77
2022/06/18 04:21:19;;;;;;;2.25;2.05;;;;;;;18.47;89.32;100989.37;4453948;32;20118;-77
2022/06/18 04:23:48;;;;;;;4.37;2.10;;;;;;;18.68;87.88;100997.53;4439737;32;20200;-77
2022/06/18 04:26:15;;;;;;;4.30;2.00;;;;;;;18.75;87.76;100996.44;4453790;32;20487;-78
2022/06/18 04:28:44;;;;;;;3.47;1.73;;;;;;;18.82;87.52;100989.94;4453878;32;20598;-78
2022/06/18 04:31:12;;;;;;;4.28;1.95;;;;;;;18.80;86.95;100999.81;4453845;32;20764;-78
2022/06/18 04:33:40;;;;;;;4.65;1.92;;;;;;;18.79;87.14;100993.59;4453817;32;20493;-77
2022/06/18 04:36:39;;;;;;;5.82;2.40;;;;;;;18.85;86.58;101000.50;4453908;32;20112;-77
2022/06/18 04:39:09;;;;;;;3.03;2.20;;;;;;;18.93;86.52;100998.44;4438527;32;20093;-77
2022/06/18 04:41:43;;;;;;;6.47;2.00;;;;;;;18.94;86.99;101007.31;4453712;32;20084;-77
2022/06/18 04:44:11;;;;;;;7.80;2.42;;;;;;;19.07;86.12;101004.13;4453583;32;20096;-77
2022/06/18 04:46:39;;;;;;;2.90;1.98;;;;;;;19.07;87.46;101008.59;4453973;32;20515;-77
2022/06/18 04:49:12;;;;;;;3.20;2.15;;;;;;;19.07;85.67;101004.13;4453658;32;20156;-77
2022/06/18 04:51:40;;;;;;;2.65;2.05;;;;;;;19.18;84.49;101005.53;4453999;32;20117;-77
2022/06/18 04:54:08;;;;;;;5.87;2.20;;;;;;;19.30;85.04;101010.44;4426843;32;20131;-77
2022/06/18 04:56:35;;;;;;;6.72;1.95;;;;;;;19.44;83.38;101013.44;4453758;32;20112;-77
2022/06/18 04:59:03;;;;;;;5.45;2.17;;;;;;;19.63;81.75;101015.41;4453667;32;20392;-77
2022/06/18 05:01:31;;;;;;;4.60;2.28;;;;;;;19.80;81.60;101015.63;4453784;32;20093;-77
2022/06/18 05:03:59;;;;;;;3.87;2.10;;;;;;;19.92;81.69;101019.59;4453675;32;20089;-77
2022/06/18 05:06:28;;;;;;;10.63;1.87;;;;;;;20.13;80.20;101024.06;4453571;32;20116;-77
2022/06/18 05:08:56;;;;;;;6.30;1.98;;;;;;;20.32;79.65;101024.19;4453881;32;20135;-77
2022/06/18 05:11:24;;;;;;;2.78;2.00;;;;;;;20.47;79.66;101033.37;4455820;32;20113;-77
2022/06/18 05:13:54;;;;;;;3.37;2.10;;;;;;;20.49;79.37;101028.81;4455780;32;20096;-77
2022/06/18 05:16:21;;;;;;;6.37;2.28;;;;;;;20.55;80.52;101031.25;4455781;32;20187;-77
2022/06/18 05:18:49;;;;;;;4.15;2.40;;;;;;;20.71;80.25;101031.47;4455445;32;20103;-77
2022/06/18 05:21:16;;;;;;;4.68;2.10;;;;;;;20.87;80.02;101029.00;4440984;32;20080;-77
2022/06/18 05:23:43;;;;;;;5.10;2.67;;;;;;;20.79;78.95;101032.00;4455286;32;20472;-77
2022/06/18 05:26:14;;;;;;;3.62;2.37;;;;;;;20.82;79.35;101036.38;4455490;32;20134;-78
2022/06/18 05:28:42;;;;;;;4.30;2.35;;;;;;;20.94;80.41;101041.16;4455461;32;20111;-77
2022/06/18 05:31:09;;;;;;;7.10;2.30;;;;;;;21.05;78.04;101038.88;4455260;32;20423;-77
2022/06/18 05:33:37;;;;;;;6.62;2.33;;;;;;;21.16;78.09;101041.94;4455345;32;20497;-77
2022/06/18 05:36:05;;;;;;;3.33;2.33;;;;;;;21.33;77.20;101045.66;4455430;32;20222;-77
2022/06/18 05:38:32;;;;;;;2.60;2.40;;;;;;;21.57;76.12;101041.00;4455348;32;20115;-77
2022/06/18 05:41:00;;;;;;;4.32;2.05;;;;;;;21.87;76.25;101047.59;4440880;32;20145;-77
2022/06/18 05:43:28;;;;;;;5.10;2.08;;;;;;;22.01;75.08;101046.91;4455365;32;20097;-77
2022/06/18 05:45:55;;;;;;;5.87;2.25;;;;;;;22.18;74.84;101048.81;4455170;32;20108;-77
2022/06/18 05:48:26;;;;;;;3.50;2.22;;;;;;;22.30;73.62;101047.34;4455019;32;20085;-77
2022/06/18 05:50:53;;;;;;;5.60;2.50;;;;;;;22.17;72.66;101052.44;4455080;32;20089;-77
2022/06/18 05:53:22;;;;;;;8.77;2.15;;;;;;;22.16;73.36;101053.38;4440921;32;20138;-77
2022/06/18 05:55:51;;;;;;;4.22;2.20;;;;;;;22.21;75.42;101055.84;4441066;32;20108;-77
2022/06/18 05:58:18;;;;;;;2.95;2.28;;;;;;;22.26;75.28;101060.03;4455165;32;20099;-77
2022/06/18 06:00:46;;;;;;;3.15;2.20;;;;;;;22.36;73.75;101058.62;4455139;32;20105;-77
2022/06/18 06:03:14;;;;;;;8.07;2.50;;;;;;;22.32;73.59;101057.03;4455107;32;20130;-77
2022/06/18 06:05:41;;;;;;;5.80;2.50;;;;;;;22.28;73.70;101059.94;4454926;32;20108;-77
2022/06/18 06:08:12;;;;;;;6.53;2.28;;;;;;;22.65;72.34;101053.56;4454902;32;20093;-77
2022/06/18 06:13:28;;;;;;;2.45;1.90;;;;;;;22.67;71.31;101060.63;4455269;32;20126;-77
2022/06/18 06:15:56;;;;;;;4.05;1.90;;;;;;;22.91;69.66;101063.84;4454893;32;20159;-77
2022/06/18 06:18:28;;;;;;;2.35;1.73;;;;;;;23.02;68.36;101066.00;4455318;32;20085;-77
2022/06/18 06:20:57;;;;;;;2.70;2.20;;;;;;;22.99;62.62;101068.84;4454080;32;20085;-77
2022/06/18 06:23:25;;;;;;;3.15;1.95;;;;;;;23.06;62.01;101064.88;4440469;32;20092;-77
2022/06/18 06:25:52;;;;;;;5.60;2.20;;;;;;;23.18;61.97;101063.38;4454766;32;20102;-77
2022/06/18 06:28:22;;;;;;;5.32;2.05;;;;;;;23.19;62.36;101061.56;4454869;32;20107;-77
2022/06/18 06:30:51;;;;;;;2.53;1.80;;;;;;;23.16;61.79;101067.09;4454869;32;20815;-77
2022/06/18 06:33:19;;;;;;;4.50;1.90;;;;;;;23.28;58.36;101061.91;4454780;32;20444;-77
2022/06/18 06:35:47;;;;;;;3.87;1.60;;;;;;;23.43;55.28;101059.34;4454748;32;20100;-77
2022/06/18 06:38:15;;;;;;;2.37;2.00;;;;;;;23.34;52.50;101066.09;4454753;32;20089;-77
2022/06/18 06:40:43;;;;;;;3.37;1.65;;;;;;;23.53;56.97;101066.84;4454706;32;20119;-77
2022/06/18 06:43:13;;;;;;;2.15;1.55;;;;;;;23.63;52.18;101068.03;4454743;32;20096;-77
2022/06/18 06:45:40;;;;;;;5.75;1.60;;;;;;;23.80;51.30;101063.59;4454737;32;20096;-77
2022/06/18 06:48:08;;;;;;;4.15;1.55;;;;;;;23.84;50.44;101062.44;4454467;32;20420;-77
2022/06/18 06:50:35;;;;;;;7.78;1.37;;;;;;;23.99;49.58;101066.09;4454549;32;20088;-77
2022/06/18 06:53:02;;;;;;;1.95;1.42;;;;;;;23.98;47.86;101065.22;4454615;32;20097;-77
2022/06/18 06:58:19;;;;;;;8.57;1.70;;;;;;;24.51;47.68;101063.97;4455035;32;20081;-77
2022/06/18 07:00:50;;;;;;;2.72;1.45;;;;;;;24.50;48.38;101066.75;4454692;32;20157;-77
2022/06/18 07:03:24;;;;;;;2.83;1.30;;;;;;;24.70;47.16;101063.75;4454696;32;20096;-77
2022/06/18 07:05:51;;;;;;;4.12;1.50;;;;;;;24.97;47.56;101063.03;4440762;32;20134;-77
2022/06/18 07:08:19;;;;;;;1.37;1.27;;;;;;;25.43;44.72;101062.88;4454600;32;20097;-77
2022/06/18 07:10:49;;;;;;;4.20;1.80;;;;;;;25.50;46.39;101058.84;4440216;32;20490;-77
2022/06/18 07:13:18;;;;;;;9.57;1.77;;;;;;;25.70;45.21;101046.78;4454651;32;20105;-77
2022/06/18 07:15:47;;;;;;;7.72;1.52;;;;;;;25.44;45.02;101056.53;4454607;32;20122;-77
2022/06/18 07:18:22;;;;;;;2.42;1.92;;;;;;;25.16;43.54;101063.69;4454643;32;20669;-77
2022/06/18 07:20:50;;;;;;;1.80;1.53;;;;;;;25.47;46.18;101059.03;4454691;32;20092;-77
2022/06/18 07:23:17;;;;;;;6.90;2.15;;;;;;;24.98;46.82;101062.94;4454682;32;20460;-77
2022/06/18 07:25:44;;;;;;;2.83;2.15;;;;;;;24.77;48.08;101062.44;4454446;32;20170;-77
2022/06/18 07:28:12;;;;;;;3.00;2.35;;;;;;;24.87;47.17;101057.31;4454717;32;20178;-78
2022/06/18 07:30:41;;;;;;;4.10;2.08;;;;;;;24.82;47.10;101062.12;4454548;32;20092;-77
2022/06/18 07:33:14;;;;;;;2.90;2.30;;;;;;;25.07;46.40;101060.63;4454292;32;20101;-77
2022/06/18 07:35:42;;;;;;;5.97;1.80;;;;;;;25.30;46.23;101064.63;4454661;32;20157;-77
2022/06/18 07:38:09;;;;;;;4.03;2.22;;;;;;;25.37;47.15;101056.06;4454698;32;20084;-77
2022/06/18 07:40:48;;;;;;;2.60;2.25;;;;;;;25.19;45.64;101057.19;4454529;32;20114;-77
2022/06/18 07:43:20;;;;;;;3.62;2.25;;;;;;;25.07;46.07;101060.63;4454533;32;20116;-77
2022/06/18 07:45:48;;;;;;;2.30;2.08;;;;;;;24.93;46.93;101056.09;4454614;32;20108;-77
2022/06/18 07:48:17;;;;;;;4.65;2.33;;;;;;;24.93;46.44;101061.47;4440360;32;20111;-77
2022/06/18 07:50:46;;;;;;;2.35;2.03;;;;;;;24.80;46.47;101058.66;4454469;32;20490;-78
2022/06/18 07:53:19;;;;;;;2.12;1.95;;;;;;;25.05;46.54;101052.62;4454381;32;20109;-77
2022/06/18 07:55:47;;;;;;;5.95;2.17;;;;;;;25.36;44.97;101053.44;4454705;32;20373;-77
2022/06/18 07:58:14;;;;;;;4.25;2.58;;;;;;;25.36;44.81;101056.16;4454372;32;20081;-76
2022/06/18 08:00:42;;;;;;;2.72;2.28;;;;;;;24.99;45.53;101061.13;4454284;32;20091;-77
2022/06/18 08:03:12;;;;;;;5.25;2.20;;;;;;;24.83;45.49;101053.09;4454528;32;20089;-76
2022/06/18 08:05:40;;;;;;;2.10;1.98;;;;;;;25.16;45.38;101050.19;4454497;32;20514;-77
2022/06/18 08:08:07;;;;;;;5.82;2.33;;;;;;;25.54;45.74;101046.87;4454179;32;20096;-77
2022/06/18 08:10:56;;;;;;;2.50;2.30;;;;;;;25.85;45.16;101047.63;4454376;32;20118;-77
2022/06/18 08:13:23;;;;;;;2.33;2.17;;;;;;;25.71;43.64;101051.19;4454208;32;20174;-76
2022/06/18 08:15:50;;;;;;;2.60;2.17;;;;;;;25.56;45.75;101044.97;4439672;32;20104;-76
2022/06/18 08:18:18;;;;;;;3.97;2.20;;;;;;;25.02;44.65;101044.75;4454269;32;20084;-76
2022/06/18 08:21:05;;;;;;;2.03;1.80;;;;;;;24.65;46.69;101046.97;4454001;32;20100;-76
2022/06/18 08:23:34;;;;;;;3.12;1.65;;;;;;;24.89;45.42;101038.38;4453994;32;20523;-76
2022/06/18 08:26:02;;;;;;;3.80;1.70;;;;;;;25.08;46.90;101038.09;4453971;32;20092;-77
2022/06/18 08:28:30;;;;;;;1.95;1.85;;;;;;;25.25;44.96;101036.09;4453871;32;20093;-77
2022/06/18 08:31:00;;;;;;;3.87;2.00;;;;;;;25.05;46.63;101033.75;4453783;32;20111;-77
2022/06/18 08:33:29;;;;;;;4.07;1.62;;;;;;;25.13;49.03;101030.63;4453877;32;20169;-76
2022/06/18 08:36:00;;;;;;;2.05;1.77;;;;;;;25.77;46.84;101031.06;4453765;32;20097;-76
2022/06/18 08:38:28;;;;;;;2.72;1.70;;;;;;;25.69;45.96;101035.12;4453772;32;20080;-76
2022/06/18 08:41:28;;;;;;;5.35;2.03;;;;;;;25.92;45.63;101030.94;4453639;32;20435;-76
2022/06/18 08:44:01;;;;;;;6.07;1.60;;;;;;;25.90;44.16;101023.91;4455243;32;20105;-76
2022/06/18 08:46:38;;;;;;;5.50;2.00;;;;;;;26.23;44.58;101029.75;4458376;32;20117;-76
2022/06/18 08:49:13;;;;;;;1.50;1.40;;;;;;;26.20;44.32;101018.31;4458311;32;20140;-76
2022/06/18 08:51:50;;;;;;;6.18;1.90;;;;;;;26.24;43.33;101019.81;4443951;32;20496;-76
2022/06/18 08:54:32;;;;;;;4.65;1.70;;;;;;;26.06;42.74;101015.66;4458653;32;20092;-76
2022/06/18 08:57:31;;;;;;;1.90;1.70;;;;;;;25.95;42.65;101013.66;4458967;32;20100;-76
2022/06/18 09:00:05;;;;;;;23.60;2.22;;;;;;;25.80;42.75;101004.75;4443701;32;20089;-76
2022/06/18 09:03:09;;;;;;;3.62;1.60;;;;;;;25.94;43.25;101011.94;4458606;32;20129;-76
2022/06/18 09:05:50;;;;;;;4.53;1.50;;;;;;;26.27;42.56;101008.81;4458539;32;20108;-76
2022/06/18 09:08:34;;;;;;;3.25;1.17;;;;;;;26.76;42.63;101010.88;4458616;32;20479;-76
2022/06/18 09:11:11;;;;;;;1.25;1.10;;;;;;;27.26;40.13;101008.31;4458567;32;20081;-77
2022/06/18 09:13:50;;;;;;;3.33;1.55;;;;;;;27.18;39.21;101006.16;4458541;32;20092;-76
2022/06/18 09:16:22;;;;;;;1.60;1.23;;;;;;;27.53;40.14;101000.91;4458537;32;20441;-76
2022/06/18 09:18:55;;;;;;;4.20;1.35;;;;;;;27.23;38.81;101011.22;4458349;32;20457;-76
2022/06/18 09:21:39;;;;;;;3.55;1.17;;;;;;;26.79;39.40;100993.59;4458415;32;20137;-76
2022/06/18 09:24:12;;;;;;;4.97;1.67;;;;;;;26.99;39.75;101001.12;4458285;32;20409;-76
2022/06/18 09:26:43;;;;;;;1.35;1.00;;;;;;;26.85;39.82;100993.13;4458524;32;20474;-76
2022/06/18 09:29:35;;;;;;;1.33;1.17;;;;;;;26.96;39.11;101001.34;4458228;32;20178;-77
2022/06/18 09:32:16;;;;;;;1.60;1.35;;;;;;;27.13;38.67;100994.78;4443936;32;20104;-77
2022/06/18 09:34:54;;;;;;;1.30;1.00;;;;;;;27.40;38.73;100990.09;4458086;32;20080;-76
2022/06/18 09:37:42;;;;;;;3.60;1.50;;;;;;;27.10;39.50;100993.16;4458176;32;20115;-76
2022/06/18 09:40:18;;;;;;;2.53;1.10;;;;;;;27.03;41.43;100989.16;4458110;32;20108;-76
2022/06/18 09:43:03;;;;;;;5.18;1.25;;;;;;;27.09;39.96;100995.94;4444264;32;20077;-76
2022/06/18 09:45:43;;;;;;;1.23;1.12;;;;;;;26.82;39.42;100983.41;4458192;32;20115;-76
2022/06/18 09:48:11;;;;;;;3.72;1.30;;;;;;;26.89;39.94;100992.84;4457837;32;20370;-76
2022/06/18 09:50:47;;;;;;;2.83;1.05;;;;;;;27.20;40.06;100977.13;4457940;32;20104;-76
2022/06/18 09:53:25;;;;;;;;;;;;;;;27.24;40.38;100977.78;4458164;32;20485;-76
2022/06/18 09:55:58;;;;;;;1.12;1.00;;;;;;;27.56;41.18;100976.31;4441984;32;20359;-76
2022/06/18 09:58:33;;;;;;;5.30;1.02;;;;;;;28.27;38.83;100968.28;4455109;32;20434;-77
2022/06/18 10:01:01;;;;;;;3.33;1.10;;;;;;;28.47;37.94;100970.34;4455039;32;20122;-77
2022/06/18 10:09:47;;;;;;;1.98;0.95;;;;;;;28.33;37.26;100967.81;4455005;32;20534;-76
2022/06/18 10:12:27;;;;;;;4.15;1.10;;;;;;;28.08;36.78;100969.69;4454999;32;20109;-76
2022/06/18 10:14:56;;;;;;;2.05;1.10;;;;;;;28.11;37.18;100971.31;4454968;32;20427;-76
2022/06/18 10:18:02;;;;;;;3.12;1.10;;;;;;;29.11;36.70;100956.28;4454974;32;20157;-77
2022/06/18 10:21:22;;;;;;;2.75;1.30;;;;;;;29.54;36.98;100956.38;4437715;32;20104;-77
2022/06/18 10:24:05;;;;;;;2.33;1.12;;;;;;;29.30;35.31;100942.97;4422687;32;20139;-77
2022/06/18 10:26:37;;;;;;;1.65;1.05;;;;;;;28.51;36.17;100938.44;4454876;32;20072;-77
2022/06/18 10:29:29;;;;;;;1.37;0.95;;;;;;;28.62;36.90;100938.47;4454842;32;20396;-77
2022/06/18 10:32:34;;;;;;;0.90;0.90;;;;;;;29.05;35.47;100944.09;4440249;32;20105;-77
2022/06/18 10:35:46;;;;;;;0.90;0.90;;;;;;;29.47;34.80;100933.44;4454800;32;20097;-77
2022/06/18 10:38:32;;;;;;;1.48;0.70;;;;;;;29.72;33.65;100936.84;4418879;32;20111;-77
2022/06/18 10:41:48;;;;;;;1.25;0.98;;;;;;;30.06;33.86;100928.56;4454778;32;20384;-77
2022/06/18 10:44:28;;;;;;;1.62;1.30;;;;;;;30.71;33.63;100931.03;4451464;32;20120;-77
2022/06/18 10:47:08;;;;;;;1.30;1.10;;;;;;;30.86;31.78;100928.84;4454674;32;20164;-77
2022/06/18 10:49:35;;;;;;;2.05;1.35;;;;;;;30.50;33.79;100932.94;4454613;32;20115;-77
2022/06/18 10:52:03;;;;;;;1.23;1.12;;;;;;;30.58;33.61;100930.38;4454657;32;20417;-77
2022/06/18 10:54:35;;;;;;;1.65;0.90;;;;;;;29.68;34.16;100932.66;4454668;32;20097;-77
2022/06/18 10:57:04;;;;;;;1.37;0.90;;;;;;;29.36;34.31;100932.56;4454755;32;20123;-77
2022/06/18 10:59:38;;;;;;;1.67;1.23;;;;;;;29.46;33.72;100926.25;4454748;32;20103;-77
2022/06/18 11:02:09;;;;;;;1.00;1.00;;;;;;;29.24;33.29;100916.31;4454693;32;20138;-77
2022/06/18 11:04:37;;;;;;;5.60;1.00;;;;;;;29.75;32.90;100910.31;4454565;32;20097;-77
2022/06/18 11:07:08;;;;;;;5.10;1.00;;;;;;;30.12;33.84;100911.72;4454015;32;20104;-77
2022/06/18 11:09:58;;;;;;;1.08;1.08;;;;;;;30.43;33.63;100916.28;4454948;32;20126;-77
2022/06/18 11:12:33;;;;;;;2.92;1.17;;;;;;;30.54;33.70;100911.75;4454562;32;20084;-77
2022/06/18 11:15:02;;;;;;;;;;;;;;;30.24;33.29;100894.37;4454797;32;20554;-77
2022/06/18 11:17:31;;;;;;;1.95;0.90;;;;;;;31.10;32.78;100898.59;4454511;32;20005;-77
2022/06/18 11:20:23;;;;;;;2.00;0.90;;;;;;;30.98;33.19;100894.22;4454610;32;20499;-77
2022/06/18 11:23:03;;;;;;;2.03;0.80;;;;;;;31.46;32.71;100900.84;4454467;32;20396;-77
2022/06/18 11:25:39;;;;;;;1.55;0.93;;;;;;;31.19;31.76;100896.88;4454570;32;20096;-77
2022/06/18 11:28:14;;;;;;;1.75;1.00;;;;;;;30.95;32.28;100889.94;4454628;32;20089;-77
2022/06/18 11:30:45;;;;;;;2.83;1.05;;;;;;;31.28;32.25;100896.06;4454459;32;20096;-77
2022/06/18 11:33:23;;;;;;;1.30;1.20;;;;;;;32.59;30.70;100876.56;4454683;32;20501;-77
2022/06/18 11:35:50;;;;;;;3.12;0.90;;;;;;;34.09;28.30;100879.81;4454508;32;20439;-77
2022/06/18 11:38:27;;;;;;;4.25;1.02;;;;;;;34.64;27.55;100868.59;4454269;32;20898;-77
2022/06/18 11:40:58;;;;;;;2.95;0.82;;;;;;;35.37;26.36;100859.81;4454274;32;20157;-77
2022/06/18 11:43:40;;;;;;;2.30;1.10;;;;;;;36.07;26.76;100871.22;4454304;32;20470;-77
2022/06/18 11:46:14;;;;;;;1.35;1.17;;;;;;;36.42;26.24;100863.63;4454408;32;20092;-77
2022/06/18 11:49:16;;;;;;;1.60;0.82;;;;;;;38.02;24.67;100851.31;4454408;32;20104;-77
2022/06/18 11:51:46;;;;;;;1.65;1.00;;;;;;;38.53;24.00;100851.50;4427334;32;20097;-77
2022/06/18 11:54:31;;;;;;;4.25;1.00;;;;;;;39.80;23.07;100851.19;4454482;32;20141;-77
2022/06/18 11:57:04;;;;;;;2.30;0.82;;;;;;;38.50;23.55;100841.72;4454272;32;20472;-77
2022/06/18 11:59:46;;;;;;;2.03;1.20;;;;;;;39.08;23.67;100832.75;4454323;32;20100;-77
2022/06/18 12:02:24;;;;;;;1.20;1.10;;;;;;;39.23;23.35;100828.06;4454224;32;20073;-77
2022/06/18 12:05:01;;;;;;;1.50;1.08;;;;;;;38.47;23.78;100833.84;4454146;32;20103;-77
2022/06/18 12:07:37;;;;;;;4.15;1.20;;;;;;;38.32;23.46;100823.84;4439674;32;20116;-77
2022/06/18 12:10:08;;;;;;;;;;;;;;;38.59;24.23;100825.09;4440077;32;20475;-77